Time;durP1;ratioP1;P1;durP2;ratioP2;P2;SDS_P1;SDS_P2;PMS_P1;PMS_P2;Temp;Humidity;BMP_temperature;BMP_pressure;BME280_temperature;BME280_humidity;BME280_pressure;Samples;Min_cycle;Max_cycle;Signal;HPM_P1;HPM_P2
2022/08/05 00:01:48;;;;;;;8.70;3.85;;;19.00;99.90;;;;;;5013687;28;20056;-95
2022/08/05 00:04:14;;;;;;;9.48;3.67;;;19.00;99.90;;;;;;5021405;28;20092;-93
2022/08/05 00:06:40;;;;;;;9.15;3.60;;;19.00;99.90;;;;;;5014952;28;20054;-95
2022/08/05 00:09:06;;;;;;;7.55;3.83;;;18.80;99.90;;;;;;5019178;28;20399;-95
2022/08/05 00:11:32;;;;;;;7.53;3.80;;;18.90;99.90;;;;;;4988400;28;20047;-92
2022/08/05 00:14:02;;;;;;;8.38;3.55;;;18.80;99.90;;;;;;5017865;28;20120;-94
2022/08/05 00:19:18;;;;;;;10.02;4.10;;;18.80;99.90;;;;;;4991676;28;20034;-94
2022/08/05 00:21:44;;;;;;;9.32;3.70;;;18.80;99.90;;;;;;4969561;28;20054;-93
2022/08/05 00:24:09;;;;;;;9.35;3.97;;;18.90;99.90;;;;;;4975938;28;20046;-93
2022/08/05 00:26:35;;;;;;;8.50;3.83;;;18.80;99.90;;;;;;5134545;22;20052;-94
2022/08/05 00:29:01;;;;;;;9.05;3.83;;;18.90;99.90;;;;;;5038142;23;20064;-94
2022/08/05 00:31:27;;;;;;;9.52;4.18;;;18.80;99.90;;;;;;5019632;28;20486;-94
2022/08/05 00:33:52;;;;;;;9.77;3.70;;;18.80;99.90;;;;;;5016782;28;20087;-92
2022/08/05 00:36:18;;;;;;;9.38;4.22;;;18.80;99.90;;;;;;5019396;28;20046;-93
2022/08/05 00:38:44;;;;;;;8.68;4.40;;;18.80;99.90;;;;;;5023354;28;20046;-91
2022/08/05 00:41:10;;;;;;;7.82;3.95;;;18.80;99.90;;;;;;5000421;28;20133;-93
2022/08/05 00:43:35;;;;;;;8.02;3.70;;;18.80;99.90;;;;;;5015409;28;20069;-92
2022/08/05 00:46:01;;;;;;;6.97;3.65;;;18.80;99.90;;;;;;5026042;28;20592;-93
2022/08/05 00:48:27;;;;;;;9.45;4.07;;;18.70;99.90;;;;;;5023136;28;20049;-96
2022/08/05 00:50:53;;;;;;;9.57;3.63;;;18.90;99.90;;;;;;5017387;28;20065;-93
2022/08/05 00:53:21;;;;;;;8.93;3.60;;;18.90;99.90;;;;;;5014784;28;20053;-93
2022/08/05 00:55:47;;;;;;;9.95;3.90;;;18.90;99.90;;;;;;5021624;28;20193;-95
2022/08/05 00:58:17;;;;;;;10.35;3.80;;;18.90;99.90;;;;;;5167631;23;20059;-94
2022/08/05 01:00:44;;;;;;;10.10;4.07;;;19.00;99.90;;;;;;5500212;23;20117;-95
2022/08/05 01:03:10;;;;;;;9.80;3.55;;;18.90;99.90;;;;;;5027968;28;20049;-93
2022/08/05 01:05:36;;;;;;;9.70;3.53;;;18.90;99.90;;;;;;5004338;28;20050;-93
2022/08/05 01:08:03;;;;;;;7.32;3.70;;;19.00;99.90;;;;;;5017750;28;20045;-93
2022/08/05 01:10:40;;;;;;;9.85;4.40;;;18.90;99.90;;;;;;5014697;28;20483;-93
2022/08/05 01:13:15;;;;;;;8.95;4.00;;;18.90;99.90;;;;;;5012957;28;20113;-93
2022/08/05 01:15:45;;;;;;;8.73;3.88;;;18.90;99.90;;;;;;4997957;28;20046;-92
2022/08/05 01:18:22;;;;;;;9.27;4.30;;;18.90;99.90;;;;;;4996890;28;20046;-96
2022/08/05 01:20:56;;;;;;;7.88;3.65;;;18.70;99.90;;;;;;5025048;28;20046;-93
2022/08/05 01:23:40;;;;;;;8.43;3.65;;;18.90;99.90;;;;;;5034322;28;20038;-96
2022/08/05 01:29:00;;;;;;;7.20;3.50;;;18.90;99.90;;;;;;5298943;23;20141;-94
2022/08/05 01:31:36;;;;;;;7.70;3.40;;;18.90;99.90;;;;;;5008661;28;20591;-94
2022/08/05 01:34:30;;;;;;;8.15;3.47;;;19.00;99.90;;;;;;4999166;28;20069;-94
2022/08/05 01:37:30;;;;;;;7.68;2.92;;;19.00;99.90;;;;;;4992779;28;20050;-94
2022/08/05 01:39:57;;;;;;;8.27;3.72;;;18.80;99.90;;;;;;4987099;28;20043;-94
2022/08/05 01:42:25;;;;;;;8.52;4.00;;;18.80;99.90;;;;;;4989695;28;20391;-93
2022/08/05 01:44:53;;;;;;;9.30;3.70;;;18.90;99.90;;;;;;4998053;28;20045;-93
2022/08/05 01:47:19;;;;;;;7.32;3.22;;;18.90;99.90;;;;;;4987948;28;20081;-95
2022/08/05 01:49:49;;;;;;;8.35;3.80;;;18.90;99.90;;;;;;5005948;28;20049;-94
2022/08/05 01:52:17;;;;;;;7.40;3.58;;;18.90;99.90;;;;;;5000177;28;20121;-92
2022/08/05 01:54:51;;;;;;;9.23;3.90;;;18.80;99.90;;;;;;5001531;28;20049;-94
2022/08/05 01:57:26;;;;;;;9.45;3.50;;;18.80;99.90;;;;;;5000646;28;20052;-93
2022/08/05 01:59:56;;;;;;;8.75;3.92;;;18.80;99.90;;;;;;4997931;28;20515;-92
2022/08/05 02:02:22;;;;;;;7.95;4.03;;;18.80;99.90;;;;;;4994523;28;20046;-93
2022/08/05 02:04:51;;;;;;;8.30;3.72;;;18.80;99.90;;;;;;5015437;28;20073;-93
2022/08/05 02:07:17;;;;;;;9.32;3.85;;;18.80;99.90;;;;;;4983481;28;20050;-94
2022/08/05 02:09:44;;;;;;;9.98;3.95;;;18.80;99.90;;;;;;4990865;28;20049;-93
2022/08/05 02:12:43;;;;;;;9.23;3.75;;;18.80;99.90;;;;;;5002674;28;20042;-93
2022/08/05 02:15:13;;;;;;;8.48;3.97;;;18.80;99.90;;;;;;5008316;28;20094;-95
2022/08/05 02:17:46;;;;;;;7.85;3.40;;;18.80;99.90;;;;;;4999215;28;20125;-94
2022/08/05 02:20:18;;;;;;;7.28;3.72;;;18.70;99.90;;;;;;5008708;28;20034;-92
2022/08/05 02:22:47;;;;;;;7.80;3.60;;;18.70;99.90;;;;;;5001347;28;20038;-93
2022/08/05 02:25:25;;;;;;;9.93;3.92;;;18.70;99.90;;;;;;4989455;28;20053;-93
2022/08/05 02:27:52;;;;;;;8.68;3.92;;;18.80;99.90;;;;;;5004783;28;20077;-94
2022/08/05 02:30:18;;;;;;;8.85;3.40;;;18.70;99.90;;;;;;4992758;28;20054;-93
2022/08/05 02:32:48;;;;;;;6.93;3.22;;;18.70;99.90;;;;;;4993638;28;20045;-92
2022/08/05 02:35:18;;;;;;;9.07;3.75;;;18.70;99.90;;;;;;4992609;28;20043;-92
2022/08/05 02:37:45;;;;;;;8.20;3.78;;;18.70;99.90;;;;;;4994767;28;20046;-92
2022/08/05 02:40:12;;;;;;;8.13;3.25;;;18.70;99.90;;;;;;4993680;28;20129;-94
2022/08/05 02:42:38;;;;;;;11.30;4.30;;;18.70;99.90;;;;;;5001922;28;20366;-94
2022/08/05 02:45:08;;;;;;;10.00;4.40;;;18.70;99.90;;;;;;4987302;28;20236;-93
2022/08/05 02:47:35;;;;;;;8.02;3.92;;;18.70;99.90;;;;;;5000663;28;20042;-93
2022/08/05 02:50:03;;;;;;;7.18;3.95;;;18.70;99.90;;;;;;4983316;28;20805;-94
2022/08/05 02:52:29;;;;;;;8.13;4.32;;;18.70;99.90;;;;;;5004109;28;20088;-94
2022/08/05 02:54:55;;;;;;;8.80;4.47;;;18.70;99.90;;;;;;4982900;28;20480;-94
2022/08/05 02:57:22;;;;;;;7.85;4.13;;;18.60;99.90;;;;;;4987534;28;20038;-92
2022/08/05 02:59:50;;;;;;;8.80;4.35;;;18.70;99.90;;;;;;5004226;28;20045;-92
2022/08/05 03:02:19;;;;;;;9.55;4.68;;;18.60;99.90;;;;;;4982513;28;20128;-91
2022/08/05 03:04:45;;;;;;;9.63;4.97;;;18.60;99.90;;;;;;4982334;28;20085;-92
2022/08/05 03:07:12;;;;;;;8.50;4.25;;;18.60;99.90;;;;;;4989854;28;20047;-93
2022/08/05 03:09:40;;;;;;;7.95;4.60;;;18.70;99.90;;;;;;4991881;28;20050;-87
2022/08/05 03:12:07;;;;;;;10.07;4.45;;;18.70;99.90;;;;;;4987223;28;20034;-87
2022/08/05 03:14:33;;;;;;;7.95;4.90;;;18.60;99.90;;;;;;4996025;28;20061;-88
2022/08/05 03:16:59;;;;;;;10.70;4.80;;;18.60;99.90;;;;;;4986063;28;20047;-88
2022/08/05 03:19:25;;;;;;;9.20;4.63;;;18.60;99.90;;;;;;4987983;28;20380;-87
2022/08/05 03:21:50;;;;;;;9.43;4.97;;;18.60;99.90;;;;;;4988474;28;20049;-88
2022/08/05 03:24:20;;;;;;;10.82;4.88;;;18.60;99.90;;;;;;4986511;28;20053;-88
2022/08/05 03:26:46;;;;;;;10.38;5.18;;;18.60;99.90;;;;;;4984432;28;20610;-87
2022/08/05 03:29:12;;;;;;;8.95;5.10;;;18.60;99.90;;;;;;4985567;28;20133;-87
2022/08/05 03:31:38;;;;;;;9.52;5.10;;;18.50;99.90;;;;;;4983764;28;20047;-88
2022/08/05 03:34:04;;;;;;;9.35;4.85;;;18.50;99.90;;;;;;4986321;28;20460;-89
2022/08/05 03:36:30;;;;;;;9.40;5.13;;;18.50;99.90;;;;;;4989781;28;20078;-88
2022/08/05 03:38:57;;;;;;;9.02;5.10;;;18.50;99.90;;;;;;4986793;28;20046;-88
2022/08/05 03:41:22;;;;;;;9.15;4.85;;;18.50;99.90;;;;;;4993545;28;20046;-88
2022/08/05 03:43:48;;;;;;;9.10;4.57;;;18.40;99.90;;;;;;4985365;28;20054;-88
2022/08/05 03:46:13;;;;;;;8.60;4.28;;;18.40;99.90;;;;;;4987948;28;20042;-88
2022/08/05 03:48:39;;;;;;;9.77;4.75;;;18.40;99.90;;;;;;4991281;28;20038;-88
2022/08/05 03:51:12;;;;;;;8.38;4.72;;;18.50;99.90;;;;;;4991462;28;20096;-88
2022/08/05 03:53:46;;;;;;;11.10;4.80;;;18.50;99.90;;;;;;4993338;28;20042;-88
2022/08/05 03:56:20;;;;;;;8.27;4.25;;;18.50;99.90;;;;;;4990594;28;20039;-88
2022/08/05 03:58:49;;;;;;;7.97;4.53;;;18.40;99.90;;;;;;4989713;28;20082;-88
2022/08/05 04:01:18;;;;;;;7.57;4.20;;;18.40;99.90;;;;;;4966560;28;20121;-88
2022/08/05 04:03:47;;;;;;;8.63;4.10;;;18.40;99.90;;;;;;4987401;28;20046;-88
2022/08/05 04:06:14;;;;;;;8.52;4.68;;;18.40;99.90;;;;;;5001816;28;20103;-87
2022/08/05 04:08:41;;;;;;;8.32;4.70;;;18.40;99.90;;;;;;5011655;28;20470;-87
2022/08/05 04:11:07;;;;;;;7.60;4.40;;;18.40;99.90;;;;;;4976955;28;20098;-88
2022/08/05 04:13:33;;;;;;;8.43;4.97;;;18.30;99.90;;;;;;4985853;28;20085;-88
2022/08/05 04:15:58;;;;;;;9.55;4.78;;;18.30;99.90;;;;;;4989024;28;20526;-88
2022/08/05 04:18:25;;;;;;;9.13;4.70;;;18.20;99.90;;;;;;4989937;28;20470;-88
2022/08/05 04:20:55;;;;;;;8.65;4.90;;;18.20;99.90;;;;;;4984806;28;20042;-88
2022/08/05 04:23:26;;;;;;;11.38;5.20;;;18.20;99.90;;;;;;4999658;28;20041;-88
2022/08/05 04:25:52;;;;;;;9.20;4.63;;;18.20;99.90;;;;;;4987637;28;20034;-88
2022/08/05 04:28:19;;;;;;;9.65;5.15;;;18.20;99.90;;;;;;4986387;28;20046;-91
2022/08/05 04:30:45;;;;;;;10.18;5.18;;;18.30;99.90;;;;;;4987850;28;20039;-89
2022/08/05 04:33:12;;;;;;;10.30;5.30;;;18.20;99.90;;;;;;4986633;28;20043;-88
2022/08/05 04:35:37;;;;;;;10.13;5.28;;;18.20;99.90;;;;;;4973884;28;20399;-88
2022/08/05 04:38:03;;;;;;;10.95;5.45;;;18.20;99.90;;;;;;4971224;28;20161;-87
2022/08/05 04:40:38;;;;;;;10.45;5.60;;;18.20;99.90;;;;;;4989572;28;20053;-88
2022/08/05 04:43:04;;;;;;;8.23;5.13;;;18.30;99.90;;;;;;4989343;28;20046;-89
2022/08/05 04:45:30;;;;;;;9.77;5.10;;;18.30;99.90;;;;;;4989559;28;20176;-87
2022/08/05 04:48:12;;;;;;;8.70;4.70;;;18.20;99.90;;;;;;4991887;28;20046;-88
2022/08/05 04:50:40;;;;;;;9.02;5.13;;;18.20;99.90;;;;;;4992429;28;20046;-87
2022/08/05 04:53:07;;;;;;;9.60;5.07;;;18.30;99.90;;;;;;4970203;28;20046;-87
2022/08/05 04:55:34;;;;;;;10.15;5.20;;;18.30;99.90;;;;;;4986563;28;20058;-88
2022/08/05 04:57:59;;;;;;;9.18;5.20;;;18.30;99.90;;;;;;4987454;28;20046;-87
2022/08/05 05:00:25;;;;;;;9.65;5.22;;;18.20;99.90;;;;;;4990705;28;20045;-87
2022/08/05 05:02:51;;;;;;;7.90;5.03;;;18.30;99.90;;;;;;4982758;28;20042;-88
2022/08/05 05:05:16;;;;;;;10.50;6.68;;;18.20;99.90;;;;;;4985845;28;20080;-89
2022/08/05 05:07:42;;;;;;;8.88;5.65;;;18.20;99.90;;;;;;4984750;28;20518;-90
2022/08/05 05:10:08;;;;;;;9.43;5.85;;;18.20;99.90;;;;;;4986266;28;20447;-90
2022/08/05 05:12:33;;;;;;;10.05;5.75;;;18.20;99.90;;;;;;4974112;28;20061;-90
2022/08/05 05:14:59;;;;;;;10.70;6.00;;;18.20;99.90;;;;;;4977817;28;20126;-90
2022/08/05 05:17:24;;;;;;;11.38;6.30;;;18.20;99.90;;;;;;4987556;28;20121;-90
2022/08/05 05:19:56;;;;;;;10.32;6.05;;;18.20;99.90;;;;;;4984073;28;20044;-89
2022/08/05 05:22:22;;;;;;;10.23;6.35;;;18.20;99.90;;;;;;4986646;28;20100;-91
2022/08/05 05:24:48;;;;;;;9.63;6.18;;;18.20;99.90;;;;;;4987125;28;20042;-91
2022/08/05 05:27:13;;;;;;;8.90;5.75;;;18.20;99.90;;;;;;4967557;28;20042;-92
2022/08/05 05:29:39;;;;;;;10.38;6.55;;;18.20;99.90;;;;;;4992376;28;20058;-96
2022/08/05 05:32:05;;;;;;;8.82;5.72;;;18.20;99.90;;;;;;4962818;28;20138;-91
2022/08/05 05:34:30;;;;;;;10.40;5.95;;;18.20;99.90;;;;;;4986084;28;20491;-92
2022/08/05 05:36:56;;;;;;;11.40;6.13;;;18.20;99.90;;;;;;4989533;28;20058;-93
2022/08/05 05:39:22;;;;;;;11.07;5.55;;;18.20;99.90;;;;;;4993964;28;20043;-92
2022/08/05 05:41:47;;;;;;;9.32;5.57;;;18.20;99.90;;;;;;4988156;28;20074;-92
2022/08/05 05:44:13;;;;;;;10.18;5.93;;;18.20;99.90;;;;;;4983464;28;20124;-92
2022/08/05 05:46:38;;;;;;;8.77;5.68;;;18.20;99.90;;;;;;4990276;28;20049;-94
2022/08/05 05:49:04;;;;;;;9.57;6.07;;;18.20;99.90;;;;;;4989927;28;20457;-90
2022/08/05 05:51:29;;;;;;;9.57;6.93;;;18.10;99.90;;;;;;4978727;28;20039;-92
2022/08/05 05:53:56;;;;;;;9.75;5.90;;;18.20;99.90;;;;;;4992735;28;20042;-92
2022/08/05 05:56:22;;;;;;;8.38;6.40;;;18.20;99.90;;;;;;4974347;28;20050;-93
2022/08/05 05:58:47;;;;;;;10.23;6.50;;;18.10;99.90;;;;;;4998784;28;20398;-91
2022/08/05 06:01:14;;;;;;;9.45;6.35;;;18.10;99.90;;;;;;4986688;28;20039;-92
2022/08/05 06:03:42;;;;;;;11.93;6.82;;;18.10;99.90;;;;;;4988577;28;20054;-94
2022/08/05 06:06:08;;;;;;;8.70;6.07;;;18.10;99.90;;;;;;5004693;28;20070;-91
2022/08/05 06:08:34;;;;;;;10.50;6.32;;;18.20;99.90;;;;;;5009941;28;20077;-89
2022/08/05 06:11:00;;;;;;;11.75;6.50;;;18.10;99.90;;;;;;5006114;28;20048;-86
2022/08/05 06:13:25;;;;;;;10.27;6.65;;;18.10;99.90;;;;;;4972456;28;20509;-87
2022/08/05 06:15:51;;;;;;;10.38;6.90;;;18.20;99.90;;;;;;4975174;28;20042;-86
2022/08/05 06:18:16;;;;;;;11.50;6.65;;;18.20;99.90;;;;;;4984004;28;20495;-85
2022/08/05 06:20:42;;;;;;;8.45;5.93;;;18.20;99.90;;;;;;4989386;28;20399;-87
2022/08/05 06:23:07;;;;;;;10.63;6.50;;;18.30;99.90;;;;;;4992736;28;20081;-85
2022/08/05 06:25:33;;;;;;;9.35;6.15;;;18.40;99.90;;;;;;4976583;28;20276;-86
2022/08/05 06:27:59;;;;;;;9.68;5.57;;;18.40;99.90;;;;;;4988931;28;20069;-87
2022/08/05 06:30:25;;;;;;;8.32;5.68;;;18.40;99.90;;;;;;4982939;28;20051;-86
2022/08/05 06:32:51;;;;;;;9.55;5.50;;;18.30;99.90;;;;;;4985020;28;20042;-85
2022/08/05 06:35:18;;;;;;;9.18;5.68;;;18.40;99.90;;;;;;4990418;28;20052;-86
2022/08/05 06:37:43;;;;;;;8.20;5.18;;;18.40;99.90;;;;;;4988874;28;20042;-87
2022/08/05 06:40:10;;;;;;;8.00;5.07;;;18.40;99.90;;;;;;4988876;28;20433;-86
2022/08/05 06:42:36;;;;;;;8.30;5.57;;;18.40;99.90;;;;;;4984971;28;20395;-86
2022/08/05 06:45:02;;;;;;;8.55;5.18;;;18.40;99.90;;;;;;4987244;28;20046;-86
2022/08/05 06:47:27;;;;;;;8.20;5.25;;;18.50;99.90;;;;;;4987201;28;20046;-89
2022/08/05 06:49:53;;;;;;;9.50;5.50;;;18.50;99.90;;;;;;4986432;28;20089;-84
2022/08/05 06:52:19;;;;;;;9.15;5.32;;;18.50;99.90;;;;;;4986957;28;20042;-90
2022/08/05 06:54:44;;;;;;;8.88;5.40;;;18.50;99.90;;;;;;4984474;28;20042;-86
2022/08/05 06:57:13;;;;;;;8.27;5.18;;;18.60;99.90;;;;;;4969733;28;20042;-86
2022/08/05 06:59:39;;;;;;;10.90;5.03;;;18.60;99.90;;;;;;4990118;28;20459;-85
2022/08/05 07:02:05;;;;;;;8.15;5.07;;;18.70;99.90;;;;;;4987263;28;20372;-86
2022/08/05 07:04:31;;;;;;;9.48;5.03;;;18.70;99.90;;;;;;4989010;28;20053;-86
2022/08/05 07:06:57;;;;;;;7.90;4.85;;;18.70;99.90;;;;;;4988983;28;20043;-86
2022/08/05 07:09:22;;;;;;;8.95;5.20;;;18.70;99.90;;;;;;4991040;28;20042;-87
2022/08/05 07:11:48;;;;;;;9.70;4.82;;;18.80;99.90;;;;;;4965469;28;20046;-85
2022/08/05 07:16:59;;;;;;;8.25;4.57;;;18.80;99.90;;;;;;4981699;28;20081;-86
2022/08/05 07:19:27;;;;;;;9.18;4.65;;;18.90;99.90;;;;;;4988872;28;20491;-86
2022/08/05 07:21:53;;;;;;;9.82;5.07;;;18.90;99.90;;;;;;5000653;28;20043;-90
2022/08/05 07:24:20;;;;;;;8.95;5.07;;;19.00;99.90;;;;;;4989140;28;20042;-87
2022/08/05 07:26:46;;;;;;;7.32;4.30;;;19.10;99.90;;;;;;4987086;28;20440;-87
2022/08/05 07:29:12;;;;;;;8.02;4.30;;;19.20;99.90;;;;;;4980016;28;20085;-89
2022/08/05 07:31:38;;;;;;;7.85;3.95;;;19.30;99.90;;;;;;4971181;28;20121;-87
2022/08/05 07:34:04;;;;;;;8.98;3.67;;;19.40;99.90;;;;;;4982359;28;20460;-84
2022/08/05 07:36:32;;;;;;;7.30;3.78;;;19.40;99.90;;;;;;4990832;28;20050;-86
2022/08/05 07:39:02;;;;;;;7.13;2.78;;;19.50;99.90;;;;;;4983701;28;20046;-85
2022/08/05 07:41:28;;;;;;;7.95;3.13;;;19.50;99.90;;;;;;4985705;28;20088;-85
2022/08/05 07:43:54;;;;;;;6.95;2.67;;;19.70;99.90;;;;;;4992727;28;20042;-84
2022/08/05 07:46:20;;;;;;;8.88;2.97;;;19.80;99.90;;;;;;4990940;28;20038;-86
2022/08/05 07:48:46;;;;;;;6.63;2.30;;;19.80;99.90;;;;;;4989639;28;20100;-85
2022/08/05 07:51:11;;;;;;;7.10;2.13;;;19.80;99.90;;;;;;4994113;28;20046;-87
2022/08/05 07:53:37;;;;;;;3.92;2.00;;;19.80;99.90;;;;;;4993098;28;20121;-86
2022/08/05 07:56:03;;;;;;;7.20;2.10;;;20.10;99.90;;;;;;4986579;28;20487;-84
2022/08/05 07:58:29;;;;;;;4.93;1.83;;;20.10;99.90;;;;;;4981808;28;20054;-85
2022/08/05 08:00:55;;;;;;;4.47;1.70;;;20.20;99.90;;;;;;4965372;28;20041;-87
2022/08/05 08:03:21;;;;;;;3.33;1.50;;;20.30;99.90;;;;;;4978088;28;20451;-86
2022/08/05 08:05:49;;;;;;;5.93;2.10;;;20.40;99.90;;;;;;4982565;28;20400;-88
2022/08/05 08:08:16;;;;;;;5.03;1.70;;;20.70;99.90;;;;;;4980232;28;20047;-86
2022/08/05 08:10:41;;;;;;;5.20;1.80;;;20.80;99.90;;;;;;4984738;28;20043;-86
2022/08/05 08:13:08;;;;;;;5.20;1.67;;;20.90;99.90;;;;;;4983275;28;20057;-86
2022/08/05 08:15:33;;;;;;;5.32;2.38;;;20.90;99.90;;;;;;4984998;28;20065;-85
2022/08/05 08:17:59;;;;;;;2.88;1.50;;;20.90;99.90;;;;;;4998450;28;20061;-88
2022/08/05 08:20:25;;;;;;;4.47;1.50;;;20.90;99.90;;;;;;4991743;28;20038;-86
2022/08/05 08:22:55;;;;;;;4.28;1.58;;;20.80;99.90;;;;;;4992872;28;20121;-85
2022/08/05 08:25:20;;;;;;;3.50;1.57;;;20.80;99.90;;;;;;4989172;28;20042;-87
2022/08/05 08:27:46;;;;;;;3.97;1.88;;;20.70;99.90;;;;;;4987729;28;20061;-86
2022/08/05 08:30:13;;;;;;;4.50;1.70;;;20.70;99.90;;;;;;4970623;28;20046;-87
2022/08/05 08:32:39;;;;;;;4.90;1.85;;;20.70;99.90;;;;;;4984915;28;20061;-85
2022/08/05 08:35:06;;;;;;;4.55;1.75;;;20.70;99.90;;;;;;4985313;28;20046;-89
2022/08/05 08:37:32;;;;;;;4.70;1.80;;;20.70;99.90;;;;;;4989135;28;20394;-88
2022/08/05 08:39:58;;;;;;;4.90;1.98;;;20.70;99.90;;;;;;4987350;28;20053;-88
2022/08/05 08:42:24;;;;;;;4.60;2.10;;;20.70;99.90;;;;;;4984220;28;20181;-88
2022/08/05 08:44:53;;;;;;;4.47;2.00;;;20.70;99.90;;;;;;4979692;28;20046;-86
2022/08/05 08:47:25;;;;;;;4.90;1.83;;;20.70;99.90;;;;;;4987243;28;20068;-88
2022/08/05 08:49:53;;;;;;;5.80;1.95;;;20.60;99.90;;;;;;4979257;28;20499;-90
2022/08/05 08:52:23;;;;;;;5.20;1.95;;;20.60;99.90;;;;;;4967984;28;20039;-88
2022/08/05 08:54:51;;;;;;;4.50;2.23;;;20.70;99.90;;;;;;4989936;28;20073;-90
2022/08/05 08:57:18;;;;;;;4.30;1.90;;;20.60;99.90;;;;;;4964320;28;20356;-88
2022/08/05 08:59:43;;;;;;;5.40;1.85;;;20.70;99.90;;;;;;4982537;28;20050;-89
2022/08/05 09:02:10;;;;;;;4.57;1.60;;;20.80;99.90;;;;;;4963773;28;20041;-89
2022/08/05 09:04:37;;;;;;;3.80;1.40;;;20.90;99.90;;;;;;4990777;28;20541;-88
2022/08/05 09:07:08;;;;;;;2.80;1.20;;;20.90;99.90;;;;;;4983955;28;20533;-89
2022/08/05 09:09:35;;;;;;;4.47;1.30;;;20.90;99.90;;;;;;4979128;28;20050;-91
2022/08/05 09:12:03;;;;;;;4.28;1.42;;;21.00;99.90;;;;;;4972599;28;20054;-92
2022/08/05 09:14:31;;;;;;;3.83;1.30;;;21.10;99.90;;;;;;4989110;28;20046;-90
2022/08/05 09:17:00;;;;;;;4.05;1.27;;;21.10;99.90;;;;;;4985284;28;20043;-89
2022/08/05 09:19:26;;;;;;;4.28;1.23;;;21.10;99.90;;;;;;4973699;28;20133;-91
2022/08/05 09:21:52;;;;;;;3.35;1.13;;;21.10;99.90;;;;;;4985300;28;20130;-89
2022/08/05 09:24:18;;;;;;;3.42;1.02;;;21.10;99.90;;;;;;4966206;28;20041;-90
2022/08/05 09:26:50;;;;;;;3.58;1.10;;;21.20;99.90;;;;;;4979445;28;20088;-88
2022/08/05 09:29:16;;;;;;;2.92;1.23;;;21.20;99.90;;;;;;4986861;28;20066;-89
2022/08/05 09:31:43;;;;;;;3.10;1.00;;;21.10;99.90;;;;;;4985287;28;20034;-86
2022/08/05 09:34:10;;;;;;;2.88;1.00;;;21.00;99.90;;;;;;4984668;28;20407;-91
2022/08/05 09:36:41;;;;;;;4.05;1.25;;;21.00;99.90;;;;;;4979301;28;20050;-92
2022/08/05 09:39:09;;;;;;;4.15;1.30;;;21.00;99.90;;;;;;4987079;28;20116;-89
2022/08/05 09:41:56;;;;;;;3.50;1.13;;;21.00;99.90;;;;;;4985740;28;20042;-88
2022/08/05 09:44:35;;;;;;;2.08;0.77;;;21.00;99.90;;;;;;4985499;28;20454;-88
2022/08/05 09:47:14;;;;;;;2.55;0.80;;;21.00;99.90;;;;;;4963646;28;20049;-88
2022/08/05 09:49:51;;;;;;;4.22;1.10;;;20.90;99.90;;;;;;4987367;28;20193;-87
2022/08/05 09:52:28;;;;;;;3.33;1.00;;;21.00;99.90;;;;;;4967381;28;20046;-90
2022/08/05 09:55:09;;;;;;;3.38;1.20;;;21.00;99.90;;;;;;4978814;28;20065;-90
2022/08/05 09:57:37;;;;;;;3.20;1.10;;;21.00;99.90;;;;;;4981937;28;20373;-88
2022/08/05 10:00:10;;;;;;;2.95;0.70;;;21.00;99.90;;;;;;4985135;28;20061;-89
2022/08/05 10:02:39;;;;;;;2.83;0.65;;;21.10;99.90;;;;;;4972464;28;20057;-89
2022/08/05 10:05:23;;;;;;;3.05;0.90;;;21.10;99.90;;;;;;4982129;28;20081;-87
2022/08/05 10:07:59;;;;;;;1.98;0.77;;;21.20;99.90;;;;;;4973978;28;20117;-89
2022/08/05 10:10:45;;;;;;;2.63;0.85;;;21.20;99.90;;;;;;4984021;28;20069;-89
2022/08/05 10:13:20;;;;;;;4.90;1.05;;;21.20;99.90;;;;;;4988275;28;20448;-87
2022/08/05 10:15:45;;;;;;;3.75;0.90;;;21.30;99.90;;;;;;4987628;28;20042;-90
2022/08/05 10:18:16;;;;;;;3.83;1.00;;;21.20;99.90;;;;;;4987340;28;20030;-88
2022/08/05 10:20:46;;;;;;;4.18;0.90;;;21.20;99.90;;;;;;4985883;28;20046;-89
2022/08/05 10:23:21;;;;;;;2.38;0.90;;;21.10;99.30;;;;;;4977753;28;20089;-88
2022/08/05 10:25:47;;;;;;;4.25;0.90;;;21.10;96.70;;;;;;4983924;28;20042;-85
2022/08/05 10:28:12;;;;;;;2.67;0.75;;;21.00;98.30;;;;;;4982393;28;20057;-87
2022/08/05 10:30:38;;;;;;;2.58;0.90;;;21.10;98.90;;;;;;4976586;28;20130;-86
2022/08/05 10:33:05;;;;;;;4.00;1.00;;;21.10;98.00;;;;;;4963104;28;20043;-91
2022/08/05 10:35:34;;;;;;;3.60;0.60;;;21.10;98.40;;;;;;4982652;28;20570;-86
2022/08/05 10:38:01;;;;;;;2.45;0.70;;;21.20;96.60;;;;;;4982394;28;20046;-86
2022/08/05 10:40:38;;;;;;;3.55;0.80;;;21.20;96.70;;;;;;4977769;28;20372;-85
2022/08/05 10:43:46;;;;;;;3.05;0.70;;;21.20;96.60;;;;;;4970783;28;20214;-86
2022/08/05 10:46:14;;;;;;;3.15;0.70;;;21.10;96.10;;;;;;4953812;28;20052;-90
2022/08/05 10:48:44;;;;;;;4.00;0.80;;;21.10;97.30;;;;;;4928612;28;20594;-86
2022/08/05 10:51:14;;;;;;;3.13;1.00;;;21.20;97.00;;;;;;4951302;28;20054;-85
2022/08/05 10:53:42;;;;;;;2.47;0.70;;;21.20;96.40;;;;;;4933408;28;20094;-91
2022/08/05 10:56:19;;;;;;;1.45;0.60;;;21.20;96.10;;;;;;4968606;28;20050;-88
2022/08/05 10:58:49;;;;;;;2.53;0.60;;;21.20;95.80;;;;;;4968739;28;20054;-90
2022/08/05 11:01:15;;;;;;;1.33;0.60;;;21.30;93.30;;;;;;4954698;28;20078;-87
2022/08/05 11:04:14;;;;;;;1.90;0.52;;;21.20;92.10;;;;;;4975168;28;20096;-93
2022/08/05 11:07:00;;;;;;;2.22;0.40;;;21.20;84.60;;;;;;4943999;28;20053;-91
2022/08/05 11:09:49;;;;;;;1.75;0.50;;;21.30;84.60;;;;;;4959092;28;20062;-90
2022/08/05 11:12:33;;;;;;;2.58;0.60;;;21.20;87.90;;;;;;4947197;28;20424;-87
2022/08/05 11:15:20;;;;;;;1.42;0.50;;;21.20;84.00;;;;;;4951165;28;20043;-88
2022/08/05 11:18:05;;;;;;;1.27;0.50;;;21.10;85.90;;;;;;4958992;28;20055;-87
2022/08/05 11:20:43;;;;;;;2.85;0.60;;;21.10;87.30;;;;;;4936550;28;20055;-89
2022/08/05 11:23:35;;;;;;;2.30;0.50;;;21.20;89.00;;;;;;4970050;28;20050;-87
2022/08/05 11:26:20;;;;;;;2.75;0.68;;;21.30;78.50;;;;;;4978889;28;20053;-86
2022/08/05 11:28:47;;;;;;;3.10;0.50;;;21.30;73.40;;;;;;4971514;28;20066;-88
2022/08/05 11:31:13;;;;;;;1.98;0.43;;;21.30;75.00;;;;;;4989689;28;20499;-92
2022/08/05 11:33:45;;;;;;;2.47;0.63;;;21.30;75.70;;;;;;4981374;28;20057;-87
2022/08/05 11:36:12;;;;;;;2.97;0.40;;;21.40;77.20;;;;;;4987370;28;20403;-85
2022/08/05 11:38:37;;;;;;;3.47;0.60;;;21.40;75.80;;;;;;4990211;28;20038;-87
2022/08/05 11:41:17;;;;;;;3.00;0.60;;;21.70;73.50;;;;;;4987536;28;20129;-86
2022/08/05 11:43:44;;;;;;;1.95;0.45;;;21.70;70.00;;;;;;4982161;28;20109;-86
2022/08/05 11:46:09;;;;;;;1.65;0.50;;;21.80;70.50;;;;;;4981643;28;20090;-86
2022/08/05 11:48:40;;;;;;;4.43;0.63;;;21.80;71.50;;;;;;4979986;28;20078;-83
2022/08/05 11:51:07;;;;;;;1.88;0.50;;;21.80;71.30;;;;;;4982625;28;20050;-83
2022/08/05 11:53:33;;;;;;;3.15;0.63;;;21.80;70.20;;;;;;4993818;28;20042;-85
2022/08/05 11:56:01;;;;;;;2.60;0.60;;;21.80;69.90;;;;;;4990474;28;20402;-84
2022/08/05 11:58:39;;;;;;;1.38;0.50;;;21.80;72.30;;;;;;4977943;28;20373;-85
2022/08/05 12:01:12;;;;;;;3.38;0.68;;;21.80;73.40;;;;;;4982076;28;20428;-83
2022/08/05 12:03:53;;;;;;;1.33;0.52;;;21.80;74.80;;;;;;4983791;28;20046;-85
2022/08/05 12:06:31;;;;;;;2.60;0.50;;;21.80;73.70;;;;;;4981826;28;20050;-84
2022/08/05 12:08:58;;;;;;;2.97;0.50;;;21.90;76.10;;;;;;4984367;28;20054;-84
2022/08/05 12:11:26;;;;;;;2.88;0.60;;;21.80;75.00;;;;;;4995245;28;20066;-93
2022/08/05 12:14:04;;;;;;;2.00;0.70;;;21.70;76.60;;;;;;4988284;28;20043;-92
2022/08/05 12:16:35;;;;;;;3.65;0.70;;;21.70;80.30;;;;;;4981995;28;20046;-93
2022/08/05 12:19:02;;;;;;;2.47;0.60;;;21.50;80.30;;;;;;4993689;28;20086;-95
2022/08/05 12:21:31;;;;;;;4.18;0.80;;;21.60;83.80;;;;;;4991494;28;20072;-90
2022/08/05 12:24:13;;;;;;;0.40;0.40;;;21.60;83.80;;;;;;5009801;28;20114;-94
2022/08/05 12:26:52;;;;;;;3.05;0.65;;;21.50;84.20;;;;;;4979929;28;20101;-91
2022/08/05 12:29:23;;;;;;;4.22;0.88;;;21.50;82.80;;;;;;4960216;28;20058;-94
2022/08/05 12:31:59;;;;;;;5.82;0.70;;;21.40;83.50;;;;;;4977193;28;20050;-92
2022/08/05 12:34:29;;;;;;;2.03;0.68;;;21.50;86.90;;;;;;4978861;28;20094;-90
2022/08/05 12:36:58;;;;;;;2.75;0.80;;;21.60;86.70;;;;;;4993412;28;20042;-93
2022/08/05 12:39:25;;;;;;;1.17;0.50;;;21.70;88.10;;;;;;4995049;28;20047;-88
2022/08/05 12:41:59;;;;;;;2.38;0.50;;;21.60;88.90;;;;;;4996441;28;20118;-93
2022/08/05 12:44:25;;;;;;;1.77;0.70;;;21.60;88.60;;;;;;4988291;28;20045;-89
2022/08/05 12:46:53;;;;;;;3.53;0.70;;;21.50;90.00;;;;;;4993998;28;20051;-94
2022/08/05 12:49:19;;;;;;;3.03;0.63;;;21.50;90.70;;;;;;4994916;28;20038;-92
2022/08/05 12:51:49;;;;;;;3.13;0.63;;;21.40;91.60;;;;;;4996025;28;20100;-94
2022/08/05 12:54:23;;;;;;;3.22;0.60;;;21.40;92.10;;;;;;4995392;28;20077;-92
2022/08/05 12:56:51;;;;;;;2.70;0.60;;;21.40;91.90;;;;;;4986507;28;20047;-90
2022/08/05 12:59:20;;;;;;;3.80;0.73;;;21.40;92.50;;;;;;4977721;28;20046;-94
2022/08/05 13:01:58;;;;;;;4.00;1.00;;;21.40;92.30;;;;;;4994263;28;20051;-93
2022/08/05 13:04:28;;;;;;;2.15;0.65;;;21.30;93.10;;;;;;4991168;28;20050;-93